Time;durP1;ratioP1;P1;durP2;ratioP2;P2;SDS_P1;SDS_P2;PMS_P1;PMS_P2;Temp;Humidity;BMP_temperature;BMP_pressure;BME280_temperature;BME280_humidity;BME280_pressure;Samples;Min_cycle;Max_cycle;Signal;HPM_P1;HPM_P2
2022/03/25 00:02:15;;;;;;;124.63;83.45;;;6.30;99.90;;;;;;5050290;28;20032;-73
2022/03/25 00:04:40;;;;;;;126.10;83.97;;;6.20;99.90;;;;;;5047850;28;20090;-73
2022/03/25 00:07:07;;;;;;;124.28;81.72;;;6.20;99.90;;;;;;5060048;28;20044;-72
2022/03/25 00:09:33;;;;;;;120.07;83.53;;;6.20;99.90;;;;;;5037905;28;20055;-73
2022/03/25 00:11:59;;;;;;;113.78;80.05;;;6.10;99.90;;;;;;5047162;28;20467;-72
2022/03/25 00:14:24;;;;;;;115.05;79.78;;;6.10;99.90;;;;;;5032607;28;20028;-72
2022/03/25 00:16:50;;;;;;;112.55;78.28;;;6.10;99.90;;;;;;5065339;28;20438;-72
2022/03/25 00:19:16;;;;;;;108.95;77.95;;;6.10;99.90;;;;;;5049957;28;20041;-72
2022/03/25 00:21:42;;;;;;;115.10;79.28;;;6.10;99.90;;;;;;5038447;28;20564;-73
2022/03/25 00:24:08;;;;;;;111.68;80.15;;;6.00;99.90;;;;;;5048802;28;20132;-72
2022/03/25 00:26:34;;;;;;;123.20;81.28;;;6.00;99.90;;;;;;5056305;28;20512;-72
2022/03/25 00:29:00;;;;;;;109.47;77.03;;;6.00;99.90;;;;;;5042234;28;20103;-72
2022/03/25 00:31:26;;;;;;;112.53;78.18;;;6.00;99.90;;;;;;5048000;28;20091;-72
2022/03/25 00:33:52;;;;;;;110.38;78.10;;;5.90;99.90;;;;;;5050001;28;20037;-73
2022/03/25 00:36:19;;;;;;;115.95;81.05;;;5.90;99.90;;;;;;5059682;28;20040;-73
2022/03/25 00:38:45;;;;;;;117.80;80.03;;;5.90;99.90;;;;;;5031502;28;20539;-73
2022/03/25 00:41:12;;;;;;;115.00;78.22;;;5.90;99.90;;;;;;5048859;28;20397;-72
2022/03/25 00:43:42;;;;;;;105.20;74.88;;;5.90;99.90;;;;;;5049186;28;20535;-72
2022/03/25 00:46:08;;;;;;;118.75;80.43;;;5.80;99.90;;;;;;5054299;28;20450;-73
2022/03/25 00:48:33;;;;;;;111.47;75.90;;;5.80;99.90;;;;;;5050532;28;20072;-73
2022/03/25 00:50:59;;;;;;;111.13;75.13;;;5.80;99.90;;;;;;5048447;28;20080;-72
2022/03/25 00:53:25;;;;;;;111.68;76.75;;;5.80;99.90;;;;;;5048517;28;20037;-73
2022/03/25 00:55:52;;;;;;;109.00;75.70;;;5.80;99.90;;;;;;5053619;28;20052;-73
2022/03/25 00:58:18;;;;;;;105.15;73.72;;;5.70;99.90;;;;;;5064156;28;20111;-73
2022/03/25 01:00:45;;;;;;;112.20;78.50;;;5.70;99.90;;;;;;5051603;28;20049;-72
2022/03/25 01:03:11;;;;;;;108.40;76.18;;;5.70;99.90;;;;;;5043904;28;20513;-72
2022/03/25 01:05:37;;;;;;;121.57;81.18;;;5.70;99.90;;;;;;5046727;28;20090;-73
2022/03/25 01:08:05;;;;;;;113.43;79.68;;;5.70;99.90;;;;;;5056365;28;20509;-72
2022/03/25 01:10:31;;;;;;;117.80;80.07;;;5.60;99.90;;;;;;5049417;28;20412;-72
2022/03/25 01:12:57;;;;;;;117.80;81.40;;;5.60;99.90;;;;;;5048853;28;20029;-72
2022/03/25 01:15:23;;;;;;;128.45;84.78;;;5.60;99.90;;;;;;5052555;28;20056;-72
2022/03/25 01:17:48;;;;;;;116.68;81.10;;;5.60;99.90;;;;;;5059391;28;20048;-72
2022/03/25 01:20:14;;;;;;;127.43;84.95;;;5.60;99.90;;;;;;5047642;28;20048;-72
2022/03/25 01:22:39;;;;;;;129.20;84.32;;;5.60;99.90;;;;;;5048815;28;20048;-72
2022/03/25 01:25:08;;;;;;;126.03;83.10;;;5.60;99.90;;;;;;5033702;28;20497;-72
2022/03/25 01:27:34;;;;;;;113.00;78.47;;;5.60;99.90;;;;;;5054939;28;20137;-72
2022/03/25 01:29:59;;;;;;;115.45;77.90;;;5.50;99.90;;;;;;5034976;28;20501;-72
2022/03/25 01:32:26;;;;;;;109.03;74.93;;;5.50;99.90;;;;;;5047280;28;20119;-72
2022/03/25 01:34:51;;;;;;;98.82;68.97;;;5.50;99.90;;;;;;5044786;28;20123;-72
2022/03/25 01:37:17;;;;;;;98.68;70.18;;;5.40;99.90;;;;;;5058461;28;20480;-73
2022/03/25 01:39:43;;;;;;;99.25;70.35;;;5.30;99.90;;;;;;5052100;28;20048;-72
2022/03/25 01:42:10;;;;;;;92.40;66.57;;;5.30;99.90;;;;;;5047172;28;20534;-72
2022/03/25 01:44:36;;;;;;;103.47;72.97;;;5.20;99.90;;;;;;5046508;28;20041;-72
2022/03/25 01:47:03;;;;;;;109.07;75.70;;;5.20;99.90;;;;;;5041872;28;20052;-72
2022/03/25 01:49:29;;;;;;;105.78;71.40;;;5.20;99.90;;;;;;5057097;28;20145;-72
2022/03/25 01:52:00;;;;;;;95.18;68.20;;;5.10;99.90;;;;;;5028648;28;20488;-72
2022/03/25 01:54:32;;;;;;;441.92;79.80;;;5.00;99.90;;;;;;5031154;28;20048;-72
2022/03/25 01:57:02;;;;;;;89.38;64.13;;;4.90;99.90;;;;;;5051367;28;20130;-72
2022/03/25 01:59:28;;;;;;;96.45;66.70;;;4.70;99.90;;;;;;5055754;28;20041;-72
2022/03/25 02:01:54;;;;;;;98.38;65.05;;;4.50;99.90;;;;;;5052375;28;20124;-72
2022/03/25 02:04:21;;;;;;;94.70;66.50;;;4.50;99.90;;;;;;5047069;28;20033;-72
2022/03/25 02:06:47;;;;;;;88.47;62.53;;;4.40;99.90;;;;;;5036701;28;20041;-72
2022/03/25 02:09:13;;;;;;;92.70;65.55;;;4.30;99.90;;;;;;5055835;28;20051;-72
2022/03/25 02:11:40;;;;;;;99.45;67.13;;;4.20;99.90;;;;;;5052162;28;20041;-73
2022/03/25 02:14:06;;;;;;;100.75;70.72;;;4.20;99.90;;;;;;5051626;28;20037;-71
2022/03/25 02:16:39;;;;;;;109.88;73.28;;;4.20;99.90;;;;;;5049729;28;20033;-73
2022/03/25 02:19:05;;;;;;;129.80;83.07;;;4.20;99.90;;;;;;5058432;28;20036;-72
2022/03/25 02:21:33;;;;;;;122.22;78.28;;;4.30;99.90;;;;;;5052120;28;20033;-73
2022/03/25 02:24:00;;;;;;;122.47;78.38;;;4.30;99.90;;;;;;5031850;28;20037;-72
2022/03/25 02:26:27;;;;;;;130.85;81.07;;;4.40;99.90;;;;;;5054371;28;20060;-72
2022/03/25 02:28:54;;;;;;;122.32;77.82;;;4.40;99.90;;;;;;5049548;28;20291;-72
2022/03/25 02:31:20;;;;;;;130.77;85.40;;;4.40;99.90;;;;;;5030268;28;20589;-72
2022/03/25 02:33:46;;;;;;;120.28;79.90;;;4.40;99.90;;;;;;5045705;28;20037;-72
2022/03/25 02:36:11;;;;;;;126.95;84.25;;;4.40;99.90;;;;;;5049247;28;20492;-72
2022/03/25 02:38:37;;;;;;;128.48;84.03;;;4.50;99.90;;;;;;5049815;28;20033;-72
2022/03/25 02:41:03;;;;;;;128.93;82.28;;;4.50;99.90;;;;;;5046819;28;20105;-72
2022/03/25 02:43:30;;;;;;;146.70;86.80;;;4.60;99.90;;;;;;5048297;28;20064;-73
2022/03/25 02:45:56;;;;;;;126.22;83.03;;;4.60;99.90;;;;;;5043803;28;20028;-72
2022/03/25 02:48:22;;;;;;;141.95;87.05;;;4.60;99.90;;;;;;5046896;28;20097;-72
2022/03/25 02:50:48;;;;;;;135.40;87.43;;;4.60;99.90;;;;;;5038680;28;20041;-72
2022/03/25 02:53:15;;;;;;;145.82;89.57;;;4.60;99.90;;;;;;5053675;28;20045;-72
2022/03/25 02:55:41;;;;;;;139.98;87.60;;;4.60;99.90;;;;;;5056378;28;20093;-72
2022/03/25 02:58:08;;;;;;;135.15;83.88;;;4.60;99.90;;;;;;5054188;28;20041;-73
2022/03/25 03:00:34;;;;;;;132.95;84.10;;;4.60;99.90;;;;;;5050081;28;20040;-72
2022/03/25 03:03:00;;;;;;;132.85;84.80;;;4.60;99.90;;;;;;5049783;28;20036;-72
2022/03/25 03:05:30;;;;;;;128.50;80.75;;;4.60;99.90;;;;;;5052284;28;20057;-73
2022/03/25 03:07:57;;;;;;;116.07;77.97;;;4.60;99.90;;;;;;5055538;28;20045;-72
2022/03/25 03:10:24;;;;;;;118.25;78.82;;;4.60;99.90;;;;;;5050199;28;20512;-72
2022/03/25 03:12:52;;;;;;;120.10;78.13;;;4.60;99.90;;;;;;5053230;28;20178;-72
2022/03/25 03:15:37;;;;;;;453.45;71.20;;;4.60;99.90;;;;;;5057988;28;20045;-72
2022/03/25 03:18:23;;;;;;;1204.88;82.55;;;4.50;99.90;;;;;;5047103;28;20043;-72
2022/03/25 03:21:09;;;;;;;447.70;60.78;;;4.40;99.90;;;;;;5048247;28;20059;-72
2022/03/25 03:23:55;;;;;;;242.05;55.60;;;4.20;99.90;;;;;;5047591;28;20132;-72
2022/03/25 03:26:21;;;;;;;360.30;56.05;;;4.00;99.90;;;;;;5063490;28;20143;-72
2022/03/25 03:28:47;;;;;;;522.45;57.97;;;3.90;99.90;;;;;;5057092;28;20090;-72
2022/03/25 03:31:14;;;;;;;242.68;64.68;;;3.80;99.90;;;;;;5051072;28;20440;-72
2022/03/25 03:33:40;;;;;;;522.63;78.38;;;3.70;99.90;;;;;;5048224;28;20103;-72
2022/03/25 03:36:06;;;;;;;508.88;62.20;;;3.40;99.90;;;;;;5031109;28;20040;-73
2022/03/25 03:38:31;;;;;;;444.67;57.05;;;3.10;99.90;;;;;;5043457;28;20045;-73
2022/03/25 03:40:57;;;;;;;144.40;57.78;;;2.90;99.90;;;;;;5025612;28;20049;-73
2022/03/25 03:43:23;;;;;;;81.20;55.92;;;2.70;99.90;;;;;;5051366;28;20047;-72
2022/03/25 03:45:48;;;;;;;66.13;54.28;;;2.60;99.90;;;;;;5050422;28;20052;-72
2022/03/25 03:48:14;;;;;;;80.57;56.63;;;2.50;99.90;;;;;;5051407;28;20068;-73
2022/03/25 03:50:40;;;;;;;71.88;53.80;;;2.50;99.90;;;;;;5043708;28;20049;-72
2022/03/25 03:53:06;;;;;;;114.68;52.90;;;2.40;99.90;;;;;;5032253;28;20051;-72
2022/03/25 03:55:32;;;;;;;62.17;51.08;;;2.40;99.90;;;;;;5043737;28;20496;-72
2022/03/25 03:57:58;;;;;;;90.93;50.05;;;2.20;99.90;;;;;;5046067;28;20065;-72
2022/03/25 04:00:24;;;;;;;120.05;55.80;;;2.20;99.90;;;;;;5031439;28;20083;-72
2022/03/25 04:02:50;;;;;;;63.85;50.30;;;2.10;99.90;;;;;;5048456;28;20040;-72
2022/03/25 04:05:16;;;;;;;73.45;53.80;;;2.10;99.90;;;;;;5061200;28;20132;-72
2022/03/25 04:07:47;;;;;;;159.70;53.25;;;2.10;99.90;;;;;;5049372;28;20041;-72
2022/03/25 04:10:17;;;;;;;140.35;49.10;;;2.10;99.90;;;;;;5046838;28;20540;-72
2022/03/25 04:12:43;;;;;;;87.47;47.35;;;2.00;99.90;;;;;;5046577;28;20041;-72
2022/03/25 04:15:11;;;;;;;66.88;48.63;;;2.00;99.90;;;;;;5053503;28;20041;-72
2022/03/25 04:17:40;;;;;;;146.07;49.20;;;1.90;99.90;;;;;;5043349;28;20547;-72
2022/03/25 04:20:08;;;;;;;273.52;51.03;;;2.00;99.90;;;;;;5046880;28;20504;-72
2022/03/25 04:22:34;;;;;;;159.15;48.00;;;2.00;99.90;;;;;;5054273;28;20071;-72
2022/03/25 04:25:00;;;;;;;255.18;47.35;;;2.00;99.90;;;;;;5022668;28;20103;-72
2022/03/25 04:27:25;;;;;;;304.67;51.50;;;2.00;99.90;;;;;;5050800;28;20048;-72
2022/03/25 04:29:51;;;;;;;240.52;51.28;;;1.90;99.90;;;;;;5046558;28;20120;-72
2022/03/25 04:32:17;;;;;;;152.82;48.75;;;1.90;99.90;;;;;;5053692;28;20071;-72
2022/03/25 04:34:43;;;;;;;97.70;45.72;;;1.90;99.90;;;;;;5052442;28;20049;-72
2022/03/25 04:37:09;;;;;;;149.82;41.65;;;1.80;99.90;;;;;;5041371;28;20034;-72
2022/03/25 04:39:36;;;;;;;238.68;45.28;;;1.90;99.90;;;;;;5053796;28;20048;-72
2022/03/25 04:42:01;;;;;;;335.52;47.50;;;1.90;99.90;;;;;;5042531;28;22313;-72
2022/03/25 04:44:27;;;;;;;219.15;55.78;;;2.00;99.90;;;;;;5048291;28;20132;-72
2022/03/25 04:46:55;;;;;;;388.05;46.63;;;1.90;99.90;;;;;;5044315;28;20496;-72
2022/03/25 04:49:21;;;;;;;407.55;46.38;;;1.70;99.90;;;;;;5045935;28;20112;-72
2022/03/25 04:51:47;;;;;;;482.10;48.33;;;1.60;99.90;;;;;;5056305;28;20053;-72
2022/03/25 04:54:12;;;;;;;165.48;48.10;;;1.50;99.90;;;;;;5051862;28;20644;-72
2022/03/25 04:56:38;;;;;;;186.80;47.42;;;1.50;99.90;;;;;;5054470;28;20036;-72
2022/03/25 04:59:03;;;;;;;425.15;51.10;;;1.50;99.90;;;;;;5049999;28;20041;-72
2022/03/25 05:01:29;;;;;;;111.30;41.92;;;1.50;99.90;;;;;;5047178;28;20389;-72
2022/03/25 05:03:55;;;;;;;167.43;43.53;;;1.60;99.90;;;;;;5051912;28;20033;-72
2022/03/25 05:06:21;;;;;;;129.57;45.58;;;1.60;99.90;;;;;;5055477;28;20086;-73
2022/03/25 05:08:46;;;;;;;172.52;44.65;;;1.60;99.90;;;;;;5052475;28;20044;-73
2022/03/25 05:11:12;;;;;;;111.47;44.17;;;1.60;99.90;;;;;;5043191;28;20041;-72
2022/03/25 05:13:38;;;;;;;85.60;43.33;;;1.50;99.90;;;;;;5056286;28;20033;-72
2022/03/25 05:16:04;;;;;;;130.52;44.80;;;1.50;99.90;;;;;;5052340;28;20041;-72
2022/03/25 05:18:29;;;;;;;184.55;46.17;;;1.50;99.90;;;;;;5031048;28;20497;-73
2022/03/25 05:20:56;;;;;;;240.73;42.10;;;1.60;99.90;;;;;;5051906;28;20052;-73
2022/03/25 05:23:23;;;;;;;134.70;41.55;;;1.50;99.90;;;;;;5051066;28;20598;-73
2022/03/25 05:25:48;;;;;;;80.90;45.05;;;1.50;99.90;;;;;;5051526;28;20472;-72
2022/03/25 05:28:16;;;;;;;133.35;45.95;;;1.50;99.90;;;;;;5032245;28;20069;-72
2022/03/25 05:30:42;;;;;;;136.63;44.00;;;1.60;99.90;;;;;;5053372;28;20471;-72
2022/03/25 05:33:08;;;;;;;145.27;43.75;;;1.60;99.90;;;;;;5046896;28;20039;-72
2022/03/25 05:35:34;;;;;;;95.38;42.00;;;1.60;99.90;;;;;;5048695;28;20035;-72
2022/03/25 05:38:00;;;;;;;116.18;44.08;;;1.70;99.90;;;;;;5069228;28;20063;-73
2022/03/25 05:40:26;;;;;;;73.93;41.70;;;1.70;99.90;;;;;;5040528;28;20517;-72
2022/03/25 05:42:52;;;;;;;91.13;41.45;;;1.70;99.90;;;;;;5033828;28;20389;-73
2022/03/25 05:45:19;;;;;;;52.03;41.45;;;1.60;99.90;;;;;;5051628;28;20041;-72
2022/03/25 05:47:45;;;;;;;53.15;40.45;;;1.50;99.90;;;;;;5056015;28;20036;-72
2022/03/25 05:50:11;;;;;;;82.47;42.90;;;1.50;99.90;;;;;;5050913;28;20037;-72
2022/03/25 05:52:38;;;;;;;94.40;44.85;;;1.50;99.90;;;;;;5047600;28;20048;-72
2022/03/25 05:55:04;;;;;;;125.13;43.58;;;1.60;99.90;;;;;;5052258;28;20045;-73
2022/03/25 05:57:31;;;;;;;160.00;44.78;;;1.60;99.90;;;;;;5057772;28;20177;-72
2022/03/25 05:59:58;;;;;;;118.63;42.88;;;1.70;99.90;;;;;;5045876;28;20048;-72
2022/03/25 06:02:25;;;;;;;134.32;41.05;;;1.60;99.90;;;;;;5043377;28;20122;-72
2022/03/25 06:04:52;;;;;;;62.92;40.50;;;1.50;99.90;;;;;;5048113;28;20045;-72
2022/03/25 06:07:18;;;;;;;51.80;41.45;;;1.50;99.90;;;;;;5039235;28;20037;-72
2022/03/25 06:09:43;;;;;;;101.82;42.47;;;1.50;99.90;;;;;;5052587;28;20049;-72
2022/03/25 06:12:11;;;;;;;52.15;40.75;;;1.50;99.90;;;;;;5050060;28;20064;-72
2022/03/25 06:14:38;;;;;;;73.15;42.88;;;1.60;99.90;;;;;;5048051;28;20076;-72
2022/03/25 06:17:05;;;;;;;116.95;39.97;;;1.60;99.90;;;;;;5041911;28;20040;-72
2022/03/25 06:19:31;;;;;;;56.10;39.45;;;1.60;99.90;;;;;;5045330;28;20040;-72
2022/03/25 06:21:57;;;;;;;44.50;36.25;;;1.60;99.90;;;;;;5057070;28;20040;-72
2022/03/25 06:24:23;;;;;;;60.80;39.25;;;1.50;99.90;;;;;;5056882;28;20254;-72
2022/03/25 06:26:49;;;;;;;158.13;40.88;;;1.50;99.90;;;;;;5032211;28;20045;-72
2022/03/25 06:29:14;;;;;;;60.78;38.85;;;1.50;99.90;;;;;;5063837;28;20510;-72
2022/03/25 06:31:40;;;;;;;49.10;39.55;;;1.40;99.90;;;;;;5049514;28;20555;-72
2022/03/25 06:34:05;;;;;;;44.15;37.85;;;1.50;99.90;;;;;;5044271;28;20275;-72
2022/03/25 06:36:31;;;;;;;44.00;36.58;;;1.60;99.90;;;;;;5040898;28;20407;-72
2022/03/25 06:38:57;;;;;;;44.28;37.58;;;1.60;99.90;;;;;;5031957;28;20457;-71
2022/03/25 06:41:23;;;;;;;44.53;38.90;;;1.60;99.90;;;;;;5034479;28;20456;-72
2022/03/25 06:43:49;;;;;;;55.95;40.83;;;1.70;99.90;;;;;;5055784;28;20455;-72
2022/03/25 06:46:19;;;;;;;50.25;40.92;;;1.80;99.90;;;;;;5046637;28;20037;-72
2022/03/25 06:48:45;;;;;;;49.03;42.03;;;1.90;99.90;;;;;;5051220;28;20061;-72
2022/03/25 06:51:11;;;;;;;40.78;36.17;;;2.00;99.90;;;;;;5044894;28;20037;-72
2022/03/25 06:53:37;;;;;;;42.97;38.28;;;2.10;99.90;;;;;;5043392;28;20451;-72
2022/03/25 06:56:04;;;;;;;46.47;41.08;;;2.20;99.90;;;;;;5029360;28;20116;-72
2022/03/25 06:58:31;;;;;;;45.25;38.88;;;2.30;99.90;;;;;;5043924;28;20055;-72
2022/03/25 07:00:57;;;;;;;45.78;40.00;;;2.30;99.90;;;;;;5028074;28;20047;-72
2022/03/25 07:03:23;;;;;;;46.78;39.33;;;2.40;99.90;;;;;;5047021;28;20051;-73
2022/03/25 07:05:52;;;;;;;50.17;42.58;;;2.50;99.90;;;;;;5027645;28;20041;-72
2022/03/25 07:08:21;;;;;;;48.58;41.30;;;2.50;99.90;;;;;;5045857;28;20064;-73
2022/03/25 07:10:47;;;;;;;63.58;47.67;;;2.60;99.90;;;;;;5047627;28;20163;-73
2022/03/25 07:13:13;;;;;;;76.28;52.78;;;2.80;99.90;;;;;;5046609;28;20100;-73
2022/03/25 07:15:38;;;;;;;98.97;59.25;;;2.90;99.90;;;;;;5046486;28;20628;-73
2022/03/25 07:18:04;;;;;;;90.95;57.53;;;3.10;99.90;;;;;;5027341;28;20664;-73
2022/03/25 07:20:30;;;;;;;91.25;57.10;;;3.30;99.90;;;;;;5051297;28;20052;-73
2022/03/25 07:22:56;;;;;;;81.43;54.30;;;3.50;99.90;;;;;;5041760;28;20417;-73
2022/03/25 07:25:22;;;;;;;75.32;53.10;;;3.70;99.90;;;;;;5041435;28;20129;-74
2022/03/25 07:27:49;;;;;;;75.00;53.25;;;3.80;99.90;;;;;;5041836;28;20485;-74
2022/03/25 07:30:16;;;;;;;79.40;54.80;;;4.00;99.90;;;;;;5042634;28;20045;-73
2022/03/25 07:32:43;;;;;;;86.85;55.72;;;4.20;99.90;;;;;;5023039;28;20056;-73
2022/03/25 07:35:10;;;;;;;89.93;58.45;;;4.30;99.90;;;;;;5049719;28;20079;-73
2022/03/25 07:37:40;;;;;;;91.45;60.05;;;4.50;99.90;;;;;;5022799;28;20075;-73
2022/03/25 07:40:09;;;;;;;94.75;57.95;;;4.70;99.90;;;;;;5046261;28;20101;-73
2022/03/25 07:42:36;;;;;;;95.35;60.38;;;4.80;99.90;;;;;;5022653;28;20049;-73
2022/03/25 07:45:02;;;;;;;96.93;59.70;;;5.00;99.90;;;;;;5027690;28;20072;-73
2022/03/25 07:47:27;;;;;;;91.90;59.80;;;5.20;99.90;;;;;;5044858;28;20087;-73
2022/03/25 07:49:53;;;;;;;89.18;58.13;;;5.30;99.90;;;;;;5048243;28;20645;-73
2022/03/25 07:52:19;;;;;;;94.00;59.40;;;5.50;99.90;;;;;;5048549;28;20099;-73
2022/03/25 07:54:44;;;;;;;94.18;57.88;;;5.70;99.90;;;;;;5043954;28;20447;-73
2022/03/25 07:57:10;;;;;;;87.45;57.90;;;5.80;99.90;;;;;;5044535;28;20045;-73
2022/03/25 07:59:36;;;;;;;83.25;55.90;;;5.90;99.90;;;;;;5045128;28;20045;-73
2022/03/25 08:02:02;;;;;;;88.50;55.17;;;6.10;99.90;;;;;;5046186;28;20575;-73
2022/03/25 08:04:27;;;;;;;85.82;55.50;;;6.30;99.90;;;;;;5047508;28;20040;-73
2022/03/25 08:06:54;;;;;;;79.88;51.90;;;6.40;99.90;;;;;;5028761;28;20094;-74
2022/03/25 08:09:20;;;;;;;78.22;52.03;;;6.60;99.90;;;;;;5046640;28;20040;-74
2022/03/25 08:11:46;;;;;;;86.13;54.70;;;6.80;99.90;;;;;;5048346;28;20033;-74
2022/03/25 08:14:13;;;;;;;77.30;53.70;;;6.90;99.90;;;;;;5028377;28;20424;-74
2022/03/25 08:16:40;;;;;;;76.88;52.00;;;7.00;99.90;;;;;;5043671;28;20466;-74
2022/03/25 08:19:06;;;;;;;79.43;52.30;;;7.20;99.90;;;;;;5043908;28;20083;-74
2022/03/25 08:21:32;;;;;;;74.18;52.22;;;7.40;99.90;;;;;;5044563;28;20405;-74
2022/03/25 08:29:26;;;;;;;69.18;49.75;;;7.80;99.90;;;;;;5040535;28;20053;-74
2022/03/25 08:31:52;;;;;;;67.10;45.58;;;8.00;99.90;;;;;;5046223;28;20033;-75
2022/03/25 08:34:17;;;;;;;65.85;45.38;;;8.10;99.90;;;;;;5054695;28;20082;-75
2022/03/25 08:36:45;;;;;;;66.95;45.38;;;8.30;99.90;;;;;;5061410;28;20040;-74
2022/03/25 08:39:12;;;;;;;61.28;43.38;;;8.40;99.90;;;;;;5045498;28;20045;-74
2022/03/25 08:41:38;;;;;;;62.67;42.20;;;8.60;99.90;;;;;;5025886;28;20048;-74
2022/03/25 08:44:04;;;;;;;62.00;40.58;;;8.80;99.90;;;;;;5050351;28;20036;-75
2022/03/25 08:46:30;;;;;;;56.70;39.22;;;8.90;99.90;;;;;;5049658;28;20040;-75
2022/03/25 08:48:55;;;;;;;58.35;39.45;;;9.10;99.90;;;;;;5049575;28;20028;-76
2022/03/25 08:51:21;;;;;;;55.10;38.47;;;9.30;99.90;;;;;;5020085;28;20185;-74
2022/03/25 08:53:47;;;;;;;55.38;38.25;;;9.40;99.90;;;;;;5048578;28;20439;-74
2022/03/25 08:56:13;;;;;;;53.50;39.47;;;9.60;99.90;;;;;;5043740;28;20456;-74
2022/03/25 08:58:40;;;;;;;57.10;38.20;;;9.80;99.90;;;;;;5032852;28;20045;-74
2022/03/25 09:01:06;;;;;;;50.38;36.08;;;9.90;99.90;;;;;;5049567;28;20044;-74
2022/03/25 09:03:32;;;;;;;53.67;38.40;;;10.00;99.90;;;;;;5049070;28;20040;-75
2022/03/25 09:05:58;;;;;;;53.70;38.55;;;10.20;99.90;;;;;;5038119;28;20067;-74
2022/03/25 09:08:23;;;;;;;57.33;36.22;;;10.30;99.90;;;;;;5052633;28;20122;-74
2022/03/25 09:10:49;;;;;;;48.55;36.30;;;10.40;99.90;;;;;;5057406;28;20037;-74
2022/03/25 09:13:14;;;;;;;52.92;37.30;;;10.50;99.90;;;;;;5051272;28;20064;-74
2022/03/25 09:15:40;;;;;;;52.67;36.67;;;10.70;99.90;;;;;;5037124;28;20037;-75
2022/03/25 09:18:06;;;;;;;49.88;36.72;;;10.80;99.90;;;;;;5052157;28;20120;-74
2022/03/25 09:20:32;;;;;;;51.92;36.80;;;11.00;99.90;;;;;;5051613;28;20032;-74
2022/03/25 09:22:58;;;;;;;49.25;36.95;;;11.10;99.90;;;;;;5031117;28;20045;-74
2022/03/25 09:25:23;;;;;;;48.10;35.42;;;11.30;99.90;;;;;;5023087;28;20084;-74
2022/03/25 09:27:49;;;;;;;49.45;36.58;;;11.40;99.90;;;;;;5053452;28;20052;-74
2022/03/25 09:30:15;;;;;;;49.15;35.53;;;11.50;99.90;;;;;;5051960;28;20045;-75
2022/03/25 09:32:41;;;;;;;49.05;35.10;;;11.60;99.90;;;;;;5015799;28;20088;-74
2022/03/25 09:35:10;;;;;;;52.90;34.92;;;11.80;99.90;;;;;;5051234;28;20522;-76
2022/03/25 09:37:38;;;;;;;49.67;34.80;;;11.90;99.90;;;;;;5053261;28;20043;-74
2022/03/25 09:40:08;;;;;;;49.90;34.10;;;12.10;99.90;;;;;;5051018;28;20041;-74
2022/03/25 09:42:36;;;;;;;47.22;34.90;;;12.30;99.90;;;;;;5036261;28;20045;-74
2022/03/25 09:45:03;;;;;;;54.72;35.53;;;12.50;99.90;;;;;;5031282;28;20045;-74
2022/03/25 09:47:30;;;;;;;47.05;34.33;;;12.60;99.90;;;;;;5051442;28;20051;-74
2022/03/25 09:49:56;;;;;;;47.97;33.97;;;12.70;99.90;;;;;;5050439;28;20033;-74
2022/03/25 09:52:23;;;;;;;47.17;34.75;;;12.70;99.90;;;;;;5036434;28;20103;-74
2022/03/25 09:54:48;;;;;;;44.72;34.38;;;12.90;99.90;;;;;;5045165;28;20064;-74
2022/03/25 09:57:14;;;;;;;50.33;34.38;;;12.90;99.90;;;;;;5048686;28;20488;-74
2022/03/25 09:59:40;;;;;;;41.92;33.47;;;13.10;99.90;;;;;;5046583;28;20045;-73
2022/03/25 10:02:06;;;;;;;44.72;33.88;;;13.10;99.20;;;;;;5034615;28;20530;-75
2022/03/25 10:04:39;;;;;;;46.38;33.17;;;13.20;98.90;;;;;;5050618;28;20083;-74
2022/03/25 10:07:25;;;;;;;51.28;33.42;;;13.20;98.00;;;;;;5048489;28;20032;-77
2022/03/25 10:10:14;;;;;;;46.97;31.33;;;13.30;97.90;;;;;;5050443;28;20131;-77
2022/03/25 10:12:42;;;;;;;45.80;33.78;;;13.40;96.40;;;;;;5016884;28;20033;-74
2022/03/25 10:15:16;;;;;;;42.38;31.35;;;13.50;96.30;;;;;;5051692;28;20116;-75
2022/03/25 10:17:51;;;;;;;43.20;31.65;;;13.70;93.60;;;;;;5051395;28;20170;-74
2022/03/25 10:20:19;;;;;;;40.13;30.85;;;13.90;93.00;;;;;;5045584;28;20041;-75
2022/03/25 10:22:58;;;;;;;49.03;31.20;;;14.10;93.50;;;;;;5051663;28;20167;-75
2022/03/25 10:25:38;;;;;;;43.58;30.38;;;14.40;91.00;;;;;;5031669;28;20112;-74
2022/03/25 10:28:16;;;;;;;43.13;30.33;;;14.60;88.80;;;;;;5036159;28;20037;-74
2022/03/25 10:30:41;;;;;;;44.13;30.70;;;14.80;88.20;;;;;;5045691;28;20041;-74
2022/03/25 10:33:13;;;;;;;44.78;31.30;;;15.00;84.70;;;;;;5032987;28;20110;-74
2022/03/25 10:36:08;;;;;;;40.03;29.08;;;15.10;81.10;;;;;;5021347;28;20037;-74
2022/03/25 10:38:43;;;;;;;41.88;28.40;;;15.30;81.50;;;;;;5035663;28;20037;-74
2022/03/25 10:41:11;;;;;;;41.08;28.77;;;15.60;76.50;;;;;;5044880;28;20041;-74
2022/03/25 10:43:56;;;;;;;38.17;26.90;;;15.80;71.60;;;;;;5049643;28;20033;-76
2022/03/25 10:46:41;;;;;;;38.65;27.02;;;16.00;64.30;;;;;;5050146;28;20047;-74
2022/03/25 10:49:12;;;;;;;37.05;26.20;;;16.20;66.50;;;;;;5051930;28;20048;-74
2022/03/25 10:51:56;;;;;;;37.45;24.08;;;16.40;65.70;;;;;;5050574;28;20072;-74
2022/03/25 10:54:26;;;;;;;32.72;24.48;;;16.60;62.50;;;;;;5051217;28;20047;-74
2022/03/25 10:57:02;;;;;;;40.72;23.23;;;16.80;64.30;;;;;;5049332;28;20037;-74
2022/03/25 10:59:34;;;;;;;31.73;21.88;;;17.00;62.30;;;;;;5051043;28;20052;-74
2022/03/25 11:02:05;;;;;;;31.52;22.67;;;17.20;61.30;;;;;;5034878;28;20036;-75
2022/03/25 11:04:31;;;;;;;38.00;23.98;;;17.40;57.60;;;;;;5051979;28;20041;-74
2022/03/25 11:06:58;;;;;;;32.97;22.38;;;17.50;56.90;;;;;;5050539;28;20116;-74
2022/03/25 11:09:27;;;;;;;39.53;23.08;;;17.70;56.10;;;;;;5066785;28;20087;-73
2022/03/25 11:11:54;;;;;;;36.10;22.55;;;17.80;56.60;;;;;;5050609;28;20090;-73
2022/03/25 11:14:20;;;;;;;32.78;22.85;;;17.90;57.00;;;;;;5034905;28;20115;-74
2022/03/25 11:16:52;;;;;;;33.88;23.25;;;18.10;55.50;;;;;;5051067;28;20048;-75
2022/03/25 11:19:19;;;;;;;;;;;18.30;55.60;;;;;;5035321;28;20064;-74
2022/03/25 11:21:47;;;;;;;35.92;23.17;;;18.40;54.40;;;;;;5045791;28;19975;-75
2022/03/25 11:24:36;;;;;;;40.17;24.63;;;18.60;54.10;;;;;;5025751;28;20056;-75
2022/03/25 11:27:09;;;;;;;36.75;23.77;;;18.80;53.80;;;;;;5052071;28;20051;-74
2022/03/25 11:29:36;;;;;;;;;;;18.90;53.50;;;;;;5047612;28;20029;-74
2022/03/25 11:32:11;;;;;;;37.35;24.67;;;19.00;51.30;;;;;;5045026;28;19916;-75
2022/03/25 11:34:45;;;;;;;35.35;23.60;;;19.00;53.30;;;;;;5028154;28;20088;-74
2022/03/25 11:37:15;;;;;;;35.22;24.02;;;19.20;51.20;;;;;;5044473;28;20120;-74
2022/03/25 11:39:41;;;;;;;39.97;25.85;;;19.40;51.00;;;;;;5034482;28;20123;-74
2022/03/25 11:42:07;;;;;;;32.97;22.63;;;19.50;50.90;;;;;;5049839;28;20128;-74
2022/03/25 11:44:33;;;;;;;38.05;24.92;;;19.60;52.00;;;;;;5054381;28;20063;-74
2022/03/25 11:46:59;;;;;;;34.20;24.05;;;19.70;50.60;;;;;;5050585;28;20044;-74
2022/03/25 11:49:43;;;;;;;33.80;23.85;;;19.90;50.20;;;;;;5029966;28;20051;-74
2022/03/25 11:52:29;;;;;;;36.70;24.85;;;20.00;50.30;;;;;;5050192;28;20507;-75
2022/03/25 11:54:58;;;;;;;33.17;24.35;;;20.10;49.30;;;;;;5029302;28;20037;-75
2022/03/25 11:57:34;;;;;;;31.40;24.33;;;20.30;50.20;;;;;;5040245;28;20041;-74
2022/03/25 12:00:04;;;;;;;36.15;23.52;;;20.40;47.10;;;;;;5048201;28;20116;-75
2022/03/25 12:02:38;;;;;;;35.80;23.38;;;20.40;49.10;;;;;;5049594;28;20131;-75
2022/03/25 12:05:25;;;;;;;34.47;23.70;;;20.50;47.10;;;;;;5037822;28;20107;-75
2022/03/25 12:08:22;;;;;;;35.22;22.55;;;20.60;48.50;;;;;;5048987;28;20515;-75
2022/03/25 12:10:50;;;;;;;40.67;22.85;;;20.80;48.30;;;;;;5046046;28;20045;-75
2022/03/25 12:13:16;;;;;;;38.33;23.48;;;21.00;47.40;;;;;;5035480;28;20039;-75
2022/03/25 12:15:45;;;;;;;36.20;22.73;;;21.10;47.50;;;;;;5048662;28;20043;-75
2022/03/25 12:18:38;;;;;;;35.58;23.85;;;21.20;45.90;;;;;;5046560;28;20053;-75
2022/03/25 12:21:04;;;;;;;37.40;23.88;;;21.30;46.10;;;;;;5042371;28;20041;-75
2022/03/25 12:23:30;;;;;;;33.15;21.48;;;21.40;46.70;;;;;;5051624;28;20047;-75
2022/03/25 12:25:55;;;;;;;30.67;20.92;;;21.40;45.90;;;;;;5050869;28;20109;-77
2022/03/25 12:28:25;;;;;;;31.13;21.60;;;21.20;46.50;;;;;;5052307;28;20044;-77
2022/03/25 12:30:53;;;;;;;31.60;20.50;;;21.10;44.50;;;;;;5048412;28;20045;-76
2022/03/25 12:33:19;;;;;;;33.15;20.05;;;21.20;45.60;;;;;;5047641;28;20044;-77
2022/03/25 12:35:45;;;;;;;31.52;20.75;;;21.30;45.60;;;;;;5032510;28;20033;-76
2022/03/25 12:38:22;;;;;;;29.60;19.27;;;21.40;46.10;;;;;;5036060;28;20098;-76
2022/03/25 12:40:50;;;;;;;32.10;19.75;;;21.40;45.60;;;;;;5047490;28;20183;-74